createdAt,value
2018-02-08T00:02:20.873Z,38.59
2018-02-08T00:04:46.709Z,38.14
2018-02-08T00:07:13.530Z,38.17
2018-02-08T00:09:40.317Z,39.22
2018-02-08T00:12:07.091Z,39.24
2018-02-08T00:14:32.909Z,38.20
2018-02-08T00:16:58.717Z,38.21
2018-02-08T00:19:25.377Z,38.22
2018-02-08T00:21:52.149Z,38.81
2018-02-08T00:24:17.954Z,38.89
2018-02-08T00:26:43.769Z,38.71
2018-02-08T00:29:10.505Z,38.27
2018-02-08T00:31:36.306Z,39.01
2018-02-08T00:34:03.144Z,39.05
2018-02-08T00:36:28.954Z,38.86
2018-02-08T00:38:54.764Z,38.00
2018-02-08T00:41:20.570Z,37.72
2018-02-08T00:43:46.377Z,37.23
2018-02-08T00:46:12.301Z,37.26
2018-02-08T00:48:38.106Z,37.28
2018-02-08T00:51:04.009Z,37.28
2018-02-08T00:53:29.870Z,37.41
2018-02-08T00:55:55.681Z,37.60
2018-02-08T00:58:21.482Z,37.68
2018-02-08T01:00:47.289Z,37.79
2018-02-08T01:03:13.099Z,37.61
2018-02-08T01:05:38.901Z,37.53
2018-02-08T01:08:04.715Z,37.66
2018-02-08T01:10:30.518Z,37.29
2018-02-08T01:12:56.317Z,37.20
2018-02-08T01:15:22.164Z,37.49
2018-02-08T01:17:47.974Z,37.06
2018-02-08T01:20:13.795Z,36.79
2018-02-08T01:22:39.641Z,37.39
2018-02-08T01:25:05.449Z,37.26
2018-02-08T01:27:31.403Z,37.09
2018-02-08T01:29:57.214Z,36.95
2018-02-08T01:32:23.034Z,36.63
2018-02-08T01:34:48.841Z,36.66
2018-02-08T01:37:14.639Z,36.90
2018-02-08T01:39:40.449Z,37.07
2018-02-08T01:42:06.261Z,37.16
2018-02-08T01:44:32.958Z,37.62
2018-02-08T01:46:58.772Z,38.81
2018-02-08T01:49:30.794Z,38.88
2018-02-08T01:51:56.600Z,37.86
2018-02-08T01:54:22.406Z,38.44
2018-02-08T01:56:48.205Z,37.79
2018-02-08T01:59:14.049Z,37.46
2018-02-08T02:01:40.813Z,37.65
2018-02-08T02:04:06.662Z,37.10
2018-02-08T02:06:32.526Z,37.06
2018-02-08T02:08:58.369Z,36.72
2018-02-08T02:11:24.178Z,36.66
2018-02-08T02:13:49.986Z,36.85
2018-02-08T02:16:16.669Z,36.91
2018-02-08T02:18:42.510Z,37.26
2018-02-08T02:21:09.114Z,36.74
2018-02-08T02:23:35.926Z,36.72
2018-02-08T02:26:01.729Z,36.91
2018-02-08T02:28:27.549Z,37.02
2018-02-08T02:30:54.323Z,37.35
2018-02-08T02:33:20.946Z,37.22
2018-02-08T02:35:46.814Z,37.38
2018-02-08T02:38:13.449Z,37.32
2018-02-08T02:40:40.282Z,37.02
2018-02-08T02:43:07.090Z,37.16
2018-02-08T02:45:33.908Z,36.88
2018-02-08T02:48:00.746Z,36.55
2018-02-08T02:50:27.374Z,36.22
2018-02-08T02:52:53.190Z,36.20
2018-02-08T02:55:19.014Z,36.02
2018-02-08T02:57:44.826Z,36.12
2018-02-08T03:00:10.653Z,36.44
2018-02-08T03:02:36.454Z,37.12
2018-02-08T03:05:02.313Z,37.63
2018-02-08T03:07:28.122Z,36.65
2018-02-08T03:09:53.982Z,36.52
2018-02-08T03:12:19.814Z,36.26
2018-02-08T03:14:45.634Z,36.41
2018-02-08T03:17:11.442Z,36.20
2018-02-08T03:19:37.254Z,36.13
2018-02-08T03:22:03.122Z,35.76
2018-02-08T03:24:28.936Z,35.97
2018-02-08T03:26:54.750Z,36.11
2018-02-08T03:29:20.583Z,36.12
2018-02-08T03:31:46.420Z,36.06
2018-02-08T03:34:12.228Z,36.15
2018-02-08T03:36:38.054Z,36.09
2018-02-08T03:39:03.898Z,35.86
2018-02-08T03:41:29.722Z,35.59
2018-02-08T03:43:55.535Z,35.53
2018-02-08T03:46:21.515Z,35.67
2018-02-08T03:48:47.370Z,35.60
2018-02-08T03:51:13.222Z,35.50
2018-02-08T03:53:39.037Z,35.38
2018-02-08T03:56:04.850Z,35.81
2018-02-08T03:58:30.657Z,36.01
2018-02-08T04:00:56.474Z,35.99
2018-02-08T04:03:22.282Z,35.86
2018-02-08T04:05:48.121Z,35.56
2018-02-08T04:08:13.936Z,35.46
2018-02-08T04:10:39.753Z,35.58
2018-02-08T04:13:05.573Z,35.50
2018-02-08T04:15:31.390Z,35.39
2018-02-08T04:17:57.210Z,35.41
2018-02-08T04:20:23.023Z,35.36
2018-02-08T04:22:48.882Z,35.38
2018-02-08T04:25:14.695Z,35.76
2018-02-08T04:27:40.499Z,36.18
2018-02-08T04:30:06.375Z,35.80
2018-02-08T04:32:32.185Z,35.82
2018-02-08T04:34:58.000Z,35.78
2018-02-08T04:37:23.830Z,35.72
2018-02-08T04:39:55.826Z,36.04
2018-02-08T04:42:27.787Z,36.26
2018-02-08T04:44:59.626Z,36.34
2018-02-08T04:50:18.421Z,35.77
2018-02-08T04:52:44.230Z,35.60
2018-02-08T04:55:10.079Z,35.56
2018-02-08T04:57:35.898Z,35.62
2018-02-08T05:00:02.685Z,35.65
2018-02-08T05:02:28.516Z,35.46
2018-02-08T05:04:54.362Z,35.26
2018-02-08T05:07:20.186Z,35.38
2018-02-08T05:09:45.993Z,35.33
2018-02-08T05:12:11.805Z,35.25
2018-02-08T05:14:37.614Z,35.26
2018-02-08T05:17:03.615Z,35.21
2018-02-08T05:19:29.479Z,35.15
2018-02-08T05:21:55.290Z,35.31
2018-02-08T05:24:21.097Z,35.74
2018-02-08T05:26:46.910Z,35.91
2018-02-08T05:29:12.725Z,35.91
2018-02-08T05:31:38.557Z,36.09
2018-02-08T05:34:04.370Z,36.23
2018-02-08T05:36:30.186Z,35.94
2018-02-08T05:38:56.057Z,35.68
2018-02-08T05:41:21.865Z,35.33
2018-02-08T05:43:47.665Z,35.08
2018-02-08T05:46:13.533Z,34.88
2018-02-08T05:48:39.334Z,34.99
2018-02-08T05:51:05.145Z,35.19
2018-02-08T05:53:30.969Z,35.43
2018-02-08T05:55:56.784Z,35.32
2018-02-08T05:58:22.598Z,35.60
2018-02-08T06:00:48.406Z,35.86
2018-02-08T06:03:14.223Z,35.75
2018-02-08T06:05:40.035Z,35.65
2018-02-08T06:08:05.838Z,35.82
2018-02-08T06:10:31.647Z,35.95
2018-02-08T06:12:57.654Z,35.62
2018-02-08T06:15:23.459Z,35.62
2018-02-08T06:17:49.262Z,35.34
2018-02-08T06:20:15.074Z,35.12
2018-02-08T06:22:40.953Z,35.09
2018-02-08T06:25:06.772Z,35.11
2018-02-08T06:27:32.581Z,34.89
2018-02-08T06:29:58.386Z,34.76
2018-02-08T06:32:24.203Z,35.02
2018-02-08T06:34:50.013Z,35.07
2018-02-08T06:37:15.822Z,35.34
2018-02-08T06:39:41.640Z,35.39
2018-02-08T06:42:07.501Z,35.40
2018-02-08T06:44:33.350Z,35.40
2018-02-08T06:46:59.162Z,35.18
2018-02-08T06:49:24.977Z,35.51
2018-02-08T06:51:50.814Z,35.58
2018-02-08T06:54:16.617Z,35.42
2018-02-08T06:56:42.427Z,35.57
2018-02-08T06:59:08.270Z,35.31
2018-02-08T07:01:34.074Z,35.17
2018-02-08T07:03:59.878Z,35.15
2018-02-08T07:06:25.682Z,34.87
2018-02-08T07:08:51.526Z,34.61
2018-02-08T07:11:17.338Z,34.88
2018-02-08T07:13:43.156Z,34.84
2018-02-08T07:16:09.030Z,34.68
2018-02-08T07:18:34.842Z,34.82
2018-02-08T07:21:00.663Z,34.83
2018-02-08T07:23:26.466Z,34.80
2018-02-08T07:25:52.280Z,34.89
2018-02-08T07:28:18.102Z,35.30
2018-02-08T07:30:43.958Z,35.33
2018-02-08T07:33:09.773Z,35.29
2018-02-08T07:35:35.593Z,35.44
2018-02-08T07:38:01.412Z,35.65
2018-02-08T07:40:27.214Z,35.72
2018-02-08T07:42:53.023Z,36.29
2018-02-08T07:45:18.834Z,36.57
2018-02-08T07:47:44.694Z,36.08
2018-02-08T07:50:10.503Z,36.08
2018-02-08T07:52:36.333Z,36.04
2018-02-08T07:55:02.139Z,35.54
2018-02-08T07:57:27.943Z,35.69
2018-02-08T07:59:53.762Z,35.74
2018-02-08T08:02:19.571Z,35.85
2018-02-08T08:04:45.377Z,36.32
2018-02-08T08:07:11.178Z,36.26
2018-02-08T08:09:36.998Z,36.02
2018-02-08T08:12:02.822Z,35.73
2018-02-08T08:14:28.681Z,35.82
2018-02-08T08:16:54.493Z,35.83
2018-02-08T08:19:21.246Z,35.51
2018-02-08T08:21:47.059Z,35.59
2018-02-08T08:24:12.880Z,35.99
2018-02-08T08:26:38.682Z,36.36
2018-02-08T08:29:04.490Z,36.13
2018-02-08T08:31:30.302Z,36.21
2018-02-08T08:33:56.110Z,36.75
2018-02-08T08:36:21.925Z,36.10
2018-02-08T08:38:47.745Z,36.37
2018-02-08T08:41:13.561Z,36.80
2018-02-08T08:43:39.366Z,36.75
2018-02-08T08:46:05.178Z,36.39
2018-02-08T08:48:31.006Z,37.50
2018-02-08T08:50:56.817Z,36.52
2018-02-08T08:53:22.630Z,36.22
2018-02-08T08:55:48.441Z,36.23
2018-02-08T08:58:14.255Z,36.43
2018-02-08T09:00:40.065Z,36.47
2018-02-08T09:03:05.870Z,36.10
2018-02-08T09:05:31.677Z,37.59
2018-02-08T09:07:57.501Z,38.08
2018-02-08T09:10:23.307Z,36.74
2018-02-08T09:12:49.116Z,36.79
2018-02-08T09:15:14.934Z,37.34
2018-02-08T09:17:40.753Z,36.80
2018-02-08T09:20:06.618Z,37.10
2018-02-08T09:22:32.435Z,37.65
2018-02-08T09:24:58.258Z,38.60
2018-02-08T09:27:24.076Z,38.19
2018-02-08T09:29:49.877Z,37.60
2018-02-08T09:32:15.699Z,37.54
2018-02-08T09:34:41.506Z,36.92
2018-02-08T09:37:07.317Z,36.68
2018-02-08T09:39:33.131Z,36.43
2018-02-08T09:41:58.937Z,36.51
2018-02-08T09:44:24.755Z,36.95
2018-02-08T09:46:50.569Z,37.57
2018-02-08T09:49:16.383Z,37.08
2018-02-08T09:51:42.193Z,37.18
2018-02-08T09:54:08.039Z,36.50
2018-02-08T09:56:33.847Z,37.21
2018-02-08T09:58:59.691Z,36.78
2018-02-08T10:01:25.495Z,37.12
2018-02-08T10:03:51.294Z,37.12
2018-02-08T10:06:17.098Z,37.13
2018-02-08T10:08:42.905Z,37.40
2018-02-08T10:11:08.718Z,36.03
2018-02-08T10:13:34.571Z,35.58
2018-02-08T10:16:00.460Z,36.16
2018-02-08T10:18:26.274Z,37.81
2018-02-08T10:20:52.078Z,36.33
2018-02-08T10:23:17.884Z,35.81
2018-02-08T10:25:43.693Z,35.65
2018-02-08T10:28:09.499Z,36.08
2018-02-08T10:30:35.311Z,35.44
2018-02-08T10:33:01.158Z,35.39
2018-02-08T10:35:27.995Z,35.21
2018-02-08T10:37:53.818Z,36.60
2018-02-08T10:40:19.626Z,36.01
2018-02-08T10:42:45.426Z,35.57
2018-02-08T10:45:11.246Z,35.13
2018-02-08T10:47:37.055Z,35.08
2018-02-08T10:50:02.876Z,35.04
2018-02-08T10:52:28.716Z,34.71
2018-02-08T10:54:54.585Z,34.68
2018-02-08T10:57:20.393Z,34.78
2018-02-08T10:59:46.198Z,34.40
2018-02-08T11:02:12.007Z,34.31
2018-02-08T11:04:37.810Z,34.15
2018-02-08T11:07:03.626Z,33.94
2018-02-08T11:09:29.481Z,34.10
2018-02-08T11:11:56.218Z,34.22
2018-02-08T11:14:22.061Z,33.96
2018-02-08T11:16:47.865Z,33.86
2018-02-08T11:19:13.702Z,34.02
2018-02-08T11:21:39.510Z,33.80
2018-02-08T11:24:05.363Z,33.61
2018-02-08T11:26:31.173Z,33.34
2018-02-08T11:28:56.996Z,33.57
2018-02-08T11:31:22.812Z,33.53
2018-02-08T11:33:48.670Z,33.45
2018-02-08T11:36:14.475Z,33.35
2018-02-08T11:38:40.312Z,33.06
2018-02-08T11:41:06.153Z,33.02
2018-02-08T11:43:31.958Z,33.29
2018-02-08T11:45:57.766Z,33.22
2018-02-08T11:48:23.573Z,33.25
2018-02-08T11:50:49.381Z,33.27
2018-02-08T11:53:15.222Z,33.09
2018-02-08T11:55:41.030Z,33.48
2018-02-08T11:58:06.908Z,33.47
2018-02-08T12:00:32.714Z,33.21
2018-02-08T12:02:58.565Z,33.13
2018-02-08T12:05:24.375Z,33.21
2018-02-08T12:07:50.180Z,32.89
2018-02-08T12:10:15.990Z,32.84
2018-02-08T12:12:41.798Z,32.86
2018-02-08T12:15:07.601Z,32.71
2018-02-08T12:17:33.446Z,33.00
2018-02-08T12:19:59.285Z,33.09
2018-02-08T12:22:25.086Z,33.09
2018-02-08T12:24:50.882Z,32.85
2018-02-08T12:27:16.694Z,32.61
2018-02-08T12:29:42.613Z,33.00
2018-02-08T12:32:08.422Z,32.92
2018-02-08T12:34:34.263Z,33.16
2018-02-08T12:37:00.067Z,33.09
2018-02-08T12:39:25.870Z,33.61
2018-02-08T12:41:51.679Z,33.40
2018-02-08T12:44:17.481Z,33.02
2018-02-08T12:46:43.302Z,32.93
2018-02-08T12:49:09.142Z,33.07
2018-02-08T12:51:34.986Z,33.22
2018-02-08T12:54:00.834Z,33.41
2018-02-08T12:56:26.683Z,34.33
2018-02-08T12:58:52.489Z,34.09
2018-02-08T13:01:18.293Z,33.95
2018-02-08T13:03:44.099Z,33.79
2018-02-08T13:06:09.914Z,34.29
2018-02-08T13:08:35.726Z,34.09
2018-02-08T13:11:01.547Z,33.99
2018-02-08T13:13:27.362Z,34.33
2018-02-08T13:15:53.177Z,33.68
2018-02-08T13:18:18.986Z,33.31
2018-02-08T13:20:44.786Z,33.33
2018-02-08T13:23:10.627Z,33.83
2018-02-08T13:25:36.438Z,34.29
2018-02-08T13:28:02.254Z,34.44
2018-02-08T13:30:28.171Z,34.45
2018-02-08T13:32:53.986Z,34.17
2018-02-08T13:35:19.882Z,35.34
2018-02-08T13:37:45.747Z,35.96
2018-02-08T13:43:13.442Z,36.78
2018-02-08T13:45:39.270Z,36.86
2018-02-08T13:48:14.030Z,37.46
2018-02-08T13:54:01.978Z,38.25
2018-02-08T13:56:33.909Z,37.59
2018-02-08T13:59:16.688Z,36.43
2018-02-08T14:01:43.386Z,36.09
2018-02-08T14:04:09.206Z,35.76
2018-02-08T14:06:35.013Z,35.22
2018-02-08T14:09:00.861Z,37.07
2018-02-08T14:11:26.666Z,37.00
2018-02-08T14:13:52.475Z,37.58
2018-02-08T14:16:18.289Z,37.43
2018-02-08T14:18:44.090Z,38.02
2018-02-08T14:21:09.895Z,37.99
2018-02-08T14:23:35.734Z,37.47
2018-02-08T14:26:01.539Z,36.62
2018-02-08T14:28:27.342Z,35.79
2018-02-08T14:30:53.277Z,36.96
2018-02-08T14:33:19.084Z,37.77
2018-02-08T14:35:45.026Z,36.68
2018-02-08T14:38:10.835Z,37.86
2018-02-08T14:40:36.652Z,37.53
2018-02-08T14:43:02.467Z,37.37
2018-02-08T14:45:28.274Z,37.50
2018-02-08T14:47:54.079Z,37.59
2018-02-08T14:50:19.882Z,37.68
2018-02-08T14:52:45.690Z,37.60
2018-02-08T14:55:11.491Z,37.62
2018-02-08T14:57:37.298Z,37.28
2018-02-08T15:00:03.138Z,37.59
2018-02-08T15:02:28.950Z,37.68
2018-02-08T15:04:54.753Z,37.28
2018-02-08T15:07:20.562Z,37.59
2018-02-08T15:09:46.365Z,37.80
2018-02-08T15:12:12.175Z,37.85
2018-02-08T15:14:38.025Z,37.09
2018-02-08T15:17:03.826Z,37.67
2018-02-08T15:19:29.671Z,37.73
2018-02-08T15:21:55.479Z,37.65
2018-02-08T15:24:21.354Z,36.51
2018-02-08T15:26:47.171Z,36.71
2018-02-08T15:29:13.014Z,37.38
2018-02-08T15:31:38.902Z,36.70
2018-02-08T15:34:04.710Z,36.32
2018-02-08T15:36:30.543Z,36.19
2018-02-08T15:38:56.351Z,36.36
2018-02-08T15:41:22.194Z,35.60
2018-02-08T15:43:48.006Z,35.64
2018-02-08T15:46:13.854Z,35.28
2018-02-08T15:48:39.658Z,35.49
2018-02-08T15:51:05.468Z,35.06
2018-02-08T15:53:31.274Z,34.82
2018-02-08T15:55:57.131Z,34.80
2018-02-08T15:58:22.981Z,34.98
2018-02-08T16:00:48.822Z,35.19
2018-02-08T16:03:14.673Z,34.89
2018-02-08T16:05:40.486Z,34.86
2018-02-08T16:08:06.295Z,35.18
2018-02-08T16:10:32.099Z,34.88
2018-02-08T16:12:57.942Z,35.17
2018-02-08T16:15:23.782Z,35.91
2018-02-08T16:17:49.587Z,35.39
2018-02-08T16:20:15.433Z,35.83
2018-02-08T16:22:41.242Z,35.84
2018-02-08T16:25:07.127Z,34.65
2018-02-08T16:27:32.933Z,35.02
2018-02-08T16:29:58.779Z,35.93
2018-02-08T16:32:24.586Z,36.99
2018-02-08T16:34:50.426Z,36.55
2018-02-08T16:37:16.242Z,35.78
2018-02-08T16:39:42.050Z,36.31
2018-02-08T16:42:07.865Z,37.55
2018-02-08T16:44:33.676Z,37.63
2018-02-08T16:46:59.486Z,36.61
2018-02-08T16:49:25.289Z,36.26
2018-02-08T16:51:51.093Z,36.13
2018-02-08T16:54:16.908Z,36.09
2018-02-08T16:56:42.744Z,35.62
2018-02-08T16:59:08.563Z,35.74
2018-02-08T17:01:34.423Z,35.94
2018-02-08T17:04:00.372Z,35.52
2018-02-08T17:06:26.194Z,35.18
2018-02-08T17:08:52.043Z,35.56
2018-02-08T17:11:17.893Z,35.12
2018-02-08T17:13:43.698Z,34.83
2018-02-08T17:16:09.549Z,34.99
2018-02-08T17:18:35.357Z,35.38
2018-02-08T17:21:01.174Z,34.94
2018-02-08T17:23:26.987Z,35.37
2018-02-08T17:25:52.807Z,34.73
2018-02-08T17:28:18.622Z,34.83
2018-02-08T17:30:44.451Z,35.28
2018-02-08T17:33:10.272Z,34.80
2018-02-08T17:35:36.083Z,34.89
2018-02-08T17:38:01.889Z,35.17
2018-02-08T17:40:27.751Z,34.70
2018-02-08T17:42:53.580Z,34.61
2018-02-08T17:45:19.547Z,34.89
2018-02-08T17:47:45.399Z,34.62
2018-02-08T17:50:11.218Z,35.51
2018-02-08T17:52:37.079Z,36.20
2018-02-08T17:55:02.907Z,36.64
2018-02-08T17:57:28.727Z,36.33
2018-02-08T17:59:54.555Z,36.11
2018-02-08T18:02:20.534Z,34.89
2018-02-08T18:04:46.346Z,34.87
2018-02-08T18:07:12.150Z,34.79
2018-02-08T18:09:37.974Z,34.15
2018-02-08T18:12:03.778Z,33.96
2018-02-08T18:14:29.585Z,33.72
2018-02-08T18:16:55.446Z,34.38
2018-02-08T18:19:21.254Z,34.21
2018-02-08T18:21:47.063Z,34.67
2018-02-08T18:24:13.050Z,34.61
2018-02-08T18:26:38.863Z,34.56
2018-02-08T18:29:04.682Z,35.04
2018-02-08T18:31:30.617Z,34.87
2018-02-08T18:33:56.425Z,34.97
2018-02-08T18:36:22.247Z,35.05
2018-02-08T18:38:48.058Z,34.98
2018-02-08T18:41:13.881Z,35.02
2018-02-08T18:43:39.734Z,35.04
2018-02-08T18:46:05.620Z,34.68
2018-02-08T18:48:31.432Z,34.58
2018-02-08T18:50:57.239Z,35.08
2018-02-08T18:53:23.207Z,34.37
2018-02-08T18:55:49.035Z,34.97
2018-02-08T18:58:14.942Z,34.49
2018-02-08T19:00:40.806Z,33.87
2018-02-08T19:03:06.625Z,34.22
2018-02-08T19:05:32.483Z,33.63
2018-02-08T19:07:58.608Z,33.64
2018-02-08T19:10:24.551Z,33.16
2018-02-08T19:12:50.408Z,34.04
2018-02-08T19:15:16.445Z,33.88
2018-02-08T19:17:42.279Z,34.02
2018-02-08T19:20:08.107Z,33.86
2018-02-08T19:22:33.922Z,33.69
2018-02-08T19:24:59.810Z,33.62
2018-02-08T19:27:25.630Z,33.74
2018-02-08T19:29:51.486Z,33.86
2018-02-08T19:32:17.290Z,33.91
2018-02-08T19:34:43.150Z,34.12
2018-02-08T19:37:08.967Z,33.94
2018-02-08T19:39:34.791Z,34.51
2018-02-08T19:42:00.632Z,34.38
2018-02-08T19:44:26.542Z,34.46
2018-02-08T19:46:52.462Z,34.60
2018-02-08T19:49:19.190Z,34.85
2018-02-08T19:51:46.144Z,34.88
2018-02-08T19:54:12.958Z,35.20
2018-02-08T19:56:39.976Z,35.00
2018-02-08T19:59:06.652Z,34.79
2018-02-08T20:01:33.603Z,34.89
2018-02-08T20:04:00.044Z,35.05
2018-02-08T20:06:26.073Z,35.17
2018-02-08T20:08:51.955Z,34.98
2018-02-08T20:11:17.838Z,34.97
2018-02-08T20:13:43.653Z,35.20
2018-02-08T20:16:09.634Z,35.17
2018-02-08T20:18:35.607Z,35.32
2018-02-08T20:21:01.550Z,35.35
2018-02-08T20:23:28.331Z,35.30
2018-02-08T20:25:54.306Z,35.40
2018-02-08T20:28:20.220Z,35.72
2018-02-08T20:30:52.139Z,35.54
2018-02-08T20:33:17.966Z,35.71
2018-02-08T20:35:43.954Z,36.33
2018-02-08T20:38:09.770Z,36.05
2018-02-08T20:40:35.587Z,36.23
2018-02-08T20:43:07.603Z,36.26
2018-02-08T20:45:33.553Z,36.00
2018-02-08T20:47:59.518Z,36.21
2018-02-08T20:50:26.419Z,36.29
2018-02-08T20:52:52.338Z,36.44
2018-02-08T20:55:18.383Z,35.83
2018-02-08T20:57:44.399Z,36.61
2018-02-08T21:00:11.394Z,36.08
2018-02-08T21:02:37.355Z,35.88
2018-02-08T21:05:03.212Z,35.97
2018-02-08T21:07:29.034Z,36.18
2018-02-08T21:09:57.091Z,36.00
2018-02-08T21:12:23.203Z,36.03
2018-02-08T21:14:49.088Z,36.03
2018-02-08T21:17:15.055Z,35.76
2018-02-08T21:19:41.071Z,36.17
2018-02-08T21:22:06.979Z,36.31
2018-02-08T21:24:32.911Z,36.26
2018-02-08T21:26:58.826Z,36.09
2018-02-08T21:29:24.959Z,36.30
2018-02-08T21:31:50.766Z,36.16
2018-02-08T21:34:16.597Z,36.72
2018-02-08T21:36:42.402Z,36.37
2018-02-08T21:39:10.405Z,36.08
2018-02-08T21:41:36.219Z,36.12
2018-02-08T21:44:02.133Z,36.35
2018-02-08T21:46:28.291Z,36.17
2018-02-08T21:48:54.172Z,36.19
2018-02-08T21:51:19.978Z,36.18
2018-02-08T21:53:45.822Z,36.22
2018-02-08T21:56:11.642Z,36.25
2018-02-08T21:58:37.554Z,36.12
2018-02-08T22:01:03.372Z,36.14
2018-02-08T22:03:29.305Z,36.15
2018-02-08T22:05:55.126Z,35.90
2018-02-08T22:08:20.931Z,35.74
2018-02-08T22:10:46.744Z,36.02
2018-02-08T22:13:12.556Z,35.99
2018-02-08T22:15:38.382Z,36.17
2018-02-08T22:18:04.204Z,35.89
2018-02-08T22:20:30.010Z,36.16
2018-02-08T22:22:55.822Z,36.41
2018-02-08T22:25:21.678Z,36.48
2018-02-08T22:27:47.494Z,36.73
2018-02-08T22:30:13.301Z,36.75
2018-02-08T22:32:39.115Z,36.89
2018-02-08T22:35:04.926Z,36.90
2018-02-08T22:37:30.734Z,37.24
2018-02-08T22:39:56.586Z,36.63
2018-02-08T22:42:22.407Z,36.74
2018-02-08T22:44:48.265Z,36.83
2018-02-08T22:47:14.078Z,36.65
2018-02-08T22:49:39.898Z,36.62
2018-02-08T22:52:05.754Z,36.52
2018-02-08T22:54:31.570Z,36.54
2018-02-08T22:56:57.416Z,36.46
2018-02-08T22:59:23.236Z,36.39
2018-02-08T23:01:49.144Z,36.55
2018-02-08T23:04:14.958Z,36.41
2018-02-08T23:06:40.782Z,36.87
2018-02-08T23:09:06.644Z,36.47
2018-02-08T23:11:32.464Z,36.24
2018-02-08T23:13:58.307Z,36.24
2018-02-08T23:16:24.126Z,36.08
2018-02-08T23:18:49.947Z,36.56
2018-02-08T23:21:15.769Z,36.39
2018-02-08T23:23:41.628Z,36.06
2018-02-08T23:26:07.478Z,36.12
2018-02-08T23:28:33.334Z,36.49
2018-02-08T23:30:59.200Z,36.39
2018-02-08T23:33:25.019Z,36.53
2018-02-08T23:35:50.876Z,36.46
2018-02-08T23:38:16.690Z,36.77
2018-02-08T23:40:42.547Z,36.32
2018-02-08T23:43:08.362Z,36.31
2018-02-08T23:45:34.206Z,36.14
2018-02-08T23:48:00.025Z,36.48
2018-02-08T23:50:25.887Z,36.43
2018-02-08T23:52:51.746Z,36.38
2018-02-08T23:55:17.974Z,36.21
2018-02-08T23:57:43.786Z,36.22
